createdAt,value
2019-02-05T00:00:46.218Z,98663.30
2019-02-05T00:03:13.034Z,98663.74
2019-02-05T00:05:39.677Z,98653.52
2019-02-05T00:08:07.549Z,98657.25
2019-02-05T00:10:34.244Z,98655.94
2019-02-05T00:13:01.331Z,98651.83
2019-02-05T00:15:28.484Z,98640.75
2019-02-05T00:17:55.205Z,98640.72
2019-02-05T00:20:22.294Z,98641.50
2019-02-05T00:22:49.387Z,98639.48
2019-02-05T00:25:16.372Z,98635.34
2019-02-05T00:27:43.321Z,98631.48
2019-02-05T00:30:10.497Z,98635.19
2019-02-05T00:32:37.810Z,98632.20
2019-02-05T00:35:04.543Z,98628.95
2019-02-05T00:37:31.632Z,98630.22
2019-02-05T00:39:58.554Z,98630.08
2019-02-05T00:42:25.613Z,98627.02
2019-02-05T00:44:52.704Z,98626.70
2019-02-05T00:47:19.712Z,98632.09
2019-02-05T00:49:46.562Z,98633.59
2019-02-05T00:52:13.646Z,98627.54
2019-02-05T00:54:40.366Z,98623.95
2019-02-05T00:57:08.070Z,98620.64
2019-02-05T00:59:34.892Z,98611.72
2019-02-05T01:02:01.739Z,98605.16
2019-02-05T01:04:28.408Z,98600.19
2019-02-05T01:06:55.320Z,98597.73
2019-02-05T01:09:22.102Z,98596.08
2019-02-05T01:11:48.715Z,98588.38
2019-02-05T01:14:15.383Z,98592.03
2019-02-05T01:16:42.567Z,98592.89
2019-02-05T01:19:09.599Z,98596.93
2019-02-05T01:21:36.246Z,98594.47
2019-02-05T01:24:03.063Z,98592.41
2019-02-05T01:26:30.329Z,98584.04
2019-02-05T01:28:58.104Z,98579.01
2019-02-05T01:31:25.172Z,98578.64
2019-02-05T01:33:51.866Z,98574.20
2019-02-05T01:36:18.576Z,98572.95
2019-02-05T01:38:45.499Z,98571.34
2019-02-05T01:41:13.127Z,98565.52
2019-02-05T01:43:39.847Z,98566.20
2019-02-05T01:46:06.934Z,98564.48
2019-02-05T01:48:33.692Z,98561.12
2019-02-05T01:51:00.377Z,98556.91
2019-02-05T01:53:27.236Z,98553.14
2019-02-05T01:55:53.844Z,98556.98
2019-02-05T01:58:20.450Z,98556.86
2019-02-05T02:00:47.584Z,98556.59
2019-02-05T02:03:14.740Z,98557.76
2019-02-05T02:05:41.709Z,98551.25
2019-02-05T02:08:08.357Z,98549.76
2019-02-05T02:10:34.966Z,98550.26
2019-02-05T02:13:01.887Z,98555.97
2019-02-05T02:15:28.671Z,98552.75
2019-02-05T02:17:55.309Z,98545.73
2019-02-05T02:20:22.454Z,98538.91
2019-02-05T02:22:49.501Z,98547.19
2019-02-05T02:25:16.187Z,98545.25
2019-02-05T02:27:42.935Z,98543.01
2019-02-05T02:30:09.970Z,98545.73
2019-02-05T02:32:36.849Z,98541.81
2019-02-05T02:35:03.502Z,98535.70
2019-02-05T02:37:30.231Z,98536.88
2019-02-05T02:39:57.183Z,98529.30
2019-02-05T02:42:24.160Z,98524.42
2019-02-05T02:44:51.261Z,98526.28
2019-02-05T02:47:18.428Z,98527.30
2019-02-05T02:49:45.580Z,98526.33
2019-02-05T02:52:12.442Z,98529.79
2019-02-05T02:54:39.159Z,98524.65
2019-02-05T02:57:05.851Z,98528.42
2019-02-05T02:59:32.946Z,98530.46
2019-02-05T03:01:59.954Z,98525.98
2019-02-05T03:04:26.771Z,98528.64
2019-02-05T03:06:53.445Z,98526.77
2019-02-05T03:09:20.752Z,98522.64
2019-02-05T03:11:47.703Z,98526.28
2019-02-05T03:14:14.683Z,98527.42
2019-02-05T03:16:42.062Z,98527.47
2019-02-05T03:19:10.205Z,98522.05
2019-02-05T03:21:36.978Z,98522.10
2019-02-05T03:24:03.804Z,98522.98
2019-02-05T03:26:30.573Z,98512.64
2019-02-05T03:28:57.589Z,98524.34
2019-02-05T03:31:24.562Z,98523.86
2019-02-05T03:33:51.326Z,98526.25
2019-02-05T03:36:18.520Z,98519.38
2019-02-05T03:38:45.428Z,98520.75
2019-02-05T03:41:12.470Z,98525.13
2019-02-05T03:43:41.687Z,98526.88
2019-02-05T03:46:09.626Z,98524.83
2019-02-05T03:48:36.683Z,98523.16
2019-02-05T03:51:03.807Z,98522.30
2019-02-05T03:53:30.578Z,98517.06
2019-02-05T03:55:57.559Z,98509.98
2019-02-05T03:58:24.275Z,98519.25
2019-02-05T04:00:51.396Z,98504.29
2019-02-05T04:03:18.708Z,98503.66
2019-02-05T04:05:45.473Z,98503.14
2019-02-05T04:08:12.660Z,98504.45
2019-02-05T04:10:39.707Z,98498.92
2019-02-05T04:13:06.721Z,98490.27
2019-02-05T04:15:33.389Z,98489.79
2019-02-05T04:18:00.323Z,98492.09
2019-02-05T04:20:27.317Z,98488.50
2019-02-05T04:22:54.600Z,98491.79
2019-02-05T04:25:21.394Z,98489.71
2019-02-05T04:27:48.686Z,98484.61
2019-02-05T04:30:15.622Z,98486.25
2019-02-05T04:32:43.003Z,98481.55
2019-02-05T04:35:09.807Z,98484.33
2019-02-05T04:37:36.765Z,98478.36
2019-02-05T04:40:03.423Z,98477.56
2019-02-05T04:42:30.318Z,98475.23
2019-02-05T04:44:57.242Z,98473.05
2019-02-05T04:47:23.814Z,98472.52
2019-02-05T04:49:50.472Z,98478.08
2019-02-05T04:52:17.271Z,98471.56
2019-02-05T04:54:44.110Z,98464.48
2019-02-05T04:57:10.890Z,98470.65
2019-02-05T04:59:37.976Z,98465.48
2019-02-05T05:02:04.892Z,98467.88
2019-02-05T05:04:31.506Z,98478.64
2019-02-05T05:06:58.336Z,98467.29
2019-02-05T05:09:25.015Z,98482.55
2019-02-05T05:11:51.668Z,98475.55
2019-02-05T05:14:18.597Z,98471.87
2019-02-05T05:16:45.297Z,98478.22
2019-02-05T05:19:11.994Z,98471.91
2019-02-05T05:21:39.079Z,98472.62
2019-02-05T05:24:06.071Z,98468.84
2019-02-05T05:26:32.675Z,98474.17
2019-02-05T05:28:59.338Z,98471.83
2019-02-05T05:31:25.989Z,98473.03
2019-02-05T05:33:53.006Z,98472.41
2019-02-05T05:36:19.645Z,98468.40
2019-02-05T05:38:46.259Z,98470.89
2019-02-05T05:41:13.170Z,98473.50
2019-02-05T05:43:39.957Z,98475.40
2019-02-05T05:46:06.801Z,98470.91
2019-02-05T05:48:33.501Z,98469.48
2019-02-05T05:51:00.303Z,98465.57
2019-02-05T05:56:12.908Z,98471.23
2019-02-05T05:58:39.642Z,98472.88
2019-02-05T06:01:06.351Z,98477.36
2019-02-05T06:03:33.648Z,98482.95
2019-02-05T06:06:00.301Z,98486.28
2019-02-05T06:08:26.969Z,98489.82
2019-02-05T06:10:53.653Z,98489.12
2019-02-05T06:13:20.766Z,98485.21
2019-02-05T06:15:47.728Z,98486.53
2019-02-05T06:18:14.752Z,98484.59
2019-02-05T06:20:41.935Z,98483.91
2019-02-05T06:23:08.889Z,98488.88
2019-02-05T06:25:35.822Z,98488.90
2019-02-05T06:28:02.488Z,98492.33
2019-02-05T06:30:29.171Z,98494.44
2019-02-05T06:32:56.164Z,98502.00
2019-02-05T06:35:23.276Z,98501.66
2019-02-05T06:37:50.275Z,98510.30
2019-02-05T06:40:18.749Z,98505.46
2019-02-05T06:42:47.699Z,98512.06
2019-02-05T06:45:17.230Z,98514.88
2019-02-05T06:47:46.437Z,98519.98
2019-02-05T06:50:20.536Z,98517.16
2019-02-05T06:52:56.639Z,98511.97
2019-02-05T06:55:25.031Z,98514.67
2019-02-05T06:57:52.690Z,98516.56
2019-02-05T07:00:23.700Z,98523.55
2019-02-05T07:02:53.392Z,98527.11
2019-02-05T07:05:25.552Z,98518.23
2019-02-05T07:07:59.500Z,98523.20
2019-02-05T07:10:27.147Z,98533.13
2019-02-05T07:12:57.037Z,98527.93
2019-02-05T07:15:23.624Z,98527.09
2019-02-05T07:17:51.799Z,98534.88
2019-02-05T07:20:18.450Z,98538.94
2019-02-05T07:22:57.585Z,98539.77
2019-02-05T07:25:18.428Z,98536.83
2019-02-05T07:27:46.128Z,98543.11
2019-02-05T07:30:17.818Z,98549.48
2019-02-05T07:35:34.288Z,98553.27
2019-02-05T07:38:05.692Z,98558.91
2019-02-05T07:40:34.267Z,98554.99
2019-02-05T07:43:02.835Z,98558.09
2019-02-05T07:45:32.018Z,98554.56
2019-02-05T07:48:05.002Z,98560.60
2019-02-05T07:50:37.580Z,98563.98
2019-02-05T07:53:04.482Z,98570.31
2019-02-05T07:55:33.889Z,98564.28
2019-02-05T07:58:05.071Z,98567.41
2019-02-05T08:00:32.281Z,98563.70
2019-02-05T08:02:58.980Z,98566.28
2019-02-05T08:05:25.618Z,98564.66
2019-02-05T08:07:52.666Z,98564.58
2019-02-05T08:10:19.867Z,98566.19
2019-02-05T08:12:49.107Z,98561.09
2019-02-05T08:15:16.142Z,98564.82
2019-02-05T08:17:42.911Z,98570.49
2019-02-05T08:20:10.180Z,98566.54
2019-02-05T08:22:37.118Z,98564.11
2019-02-05T08:25:03.820Z,98566.69
2019-02-05T08:27:30.711Z,98561.88
2019-02-05T08:29:57.525Z,98564.30
2019-02-05T08:32:24.239Z,98566.50
2019-02-05T08:34:51.169Z,98557.55
2019-02-05T08:37:18.180Z,98559.79
2019-02-05T08:39:48.498Z,98560.76
2019-02-05T08:42:16.294Z,98565.34
2019-02-05T08:44:44.868Z,98561.94
2019-02-05T08:47:15.013Z,98563.66
2019-02-05T08:49:46.203Z,98558.84
2019-02-05T08:52:16.181Z,98555.77
2019-02-05T08:54:44.015Z,98562.03
2019-02-05T08:57:13.897Z,98558.05
2019-02-05T08:59:47.739Z,98559.98
2019-02-05T09:02:14.719Z,98554.77
2019-02-05T09:04:46.612Z,98557.14
2019-02-05T09:07:15.729Z,98558.69
2019-02-05T09:09:42.843Z,98566.17
2019-02-05T09:12:13.937Z,98566.72
2019-02-05T09:14:58.122Z,98567.48
2019-02-05T09:17:28.460Z,98568.30
2019-02-05T09:19:56.154Z,98571.50
2019-02-05T09:22:24.832Z,98570.93
2019-02-05T09:24:54.559Z,98572.18
2019-02-05T09:27:22.178Z,98571.36
2019-02-05T09:29:50.129Z,98574.30
2019-02-05T09:32:19.744Z,98571.40
2019-02-05T09:34:47.683Z,98567.63
2019-02-05T09:37:15.946Z,98569.94
2019-02-05T09:39:42.861Z,98578.42
2019-02-05T09:42:16.226Z,98577.66
2019-02-05T09:44:49.411Z,98590.16
2019-02-05T09:47:18.589Z,98586.22
2019-02-05T09:49:46.375Z,98585.13
2019-02-05T09:52:16.539Z,98586.84
2019-02-05T09:54:45.420Z,98590.09
2019-02-05T09:57:12.613Z,98589.61
2019-02-05T09:59:45.373Z,98585.26
2019-02-05T10:02:11.673Z,98586.32
2019-02-05T10:04:39.310Z,98584.92
2019-02-05T10:07:08.039Z,98582.13
2019-02-05T10:09:37.303Z,98580.35
2019-02-05T10:12:06.338Z,98583.00
2019-02-05T10:14:34.564Z,98580.29
2019-02-05T10:17:04.301Z,98580.31
2019-02-05T10:19:31.980Z,98575.44
2019-02-05T10:21:59.722Z,98575.64
2019-02-05T10:24:27.373Z,98572.90
2019-02-05T10:27:06.737Z,98568.52
2019-02-05T10:29:35.099Z,98560.66
2019-02-05T10:32:04.884Z,98567.04
2019-02-05T10:34:35.918Z,98565.51
2019-02-05T10:37:06.755Z,98560.43
2019-02-05T10:39:34.393Z,98561.60
2019-02-05T10:42:03.993Z,98558.69
2019-02-05T10:44:34.868Z,98561.22
2019-02-05T10:47:01.978Z,98549.85
2019-02-05T10:49:31.484Z,98546.95
2019-02-05T10:51:58.856Z,98539.11
2019-02-05T10:54:28.241Z,98533.95
2019-02-05T10:56:56.169Z,98532.61
2019-02-05T10:59:24.137Z,98535.33
2019-02-05T11:01:52.564Z,98535.95
2019-02-05T11:04:20.549Z,98536.16
2019-02-05T11:06:53.643Z,98535.06
2019-02-05T11:09:24.658Z,98533.62
2019-02-05T11:11:52.621Z,98539.14
2019-02-05T11:14:24.042Z,98537.70
2019-02-05T11:16:51.831Z,98532.81
2019-02-05T11:19:20.489Z,98530.70
2019-02-05T11:21:52.105Z,98530.25
2019-02-05T11:24:19.668Z,98526.92
2019-02-05T11:26:46.425Z,98523.16
2019-02-05T11:32:01.527Z,98521.76
2019-02-05T11:34:29.490Z,98517.64
2019-02-05T11:36:57.199Z,98515.98
2019-02-05T11:39:25.279Z,98520.61
2019-02-05T11:41:53.791Z,98513.37
2019-02-05T11:44:20.799Z,98510.10
2019-02-05T11:46:48.997Z,98510.61
2019-02-05T11:49:19.675Z,98506.28
2019-02-05T11:51:51.430Z,98494.97
2019-02-05T11:54:18.485Z,98494.47
2019-02-05T11:56:47.620Z,98501.55
2019-02-05T11:59:16.821Z,98500.91
2019-02-05T12:01:45.653Z,98497.34
2019-02-05T12:04:12.300Z,98496.02
2019-02-05T12:06:39.310Z,98499.48
2019-02-05T12:09:06.497Z,98487.13
2019-02-05T12:11:33.826Z,98485.33
2019-02-05T12:14:00.514Z,98478.25
2019-02-05T12:16:27.476Z,98476.13
2019-02-05T12:18:54.108Z,98475.80
2019-02-05T12:21:20.969Z,98479.86
2019-02-05T12:23:47.832Z,98475.58
2019-02-05T12:26:16.370Z,98472.97
2019-02-05T12:28:43.072Z,98472.28
2019-02-05T12:31:10.074Z,98471.67
2019-02-05T12:33:37.158Z,98470.86
2019-02-05T12:36:04.167Z,98471.67
2019-02-05T12:38:31.709Z,98471.52
2019-02-05T12:40:58.453Z,98468.37
2019-02-05T12:43:25.379Z,98471.83
2019-02-05T12:45:52.729Z,98466.02
2019-02-05T12:48:19.448Z,98463.11
2019-02-05T12:50:46.832Z,98465.09
2019-02-05T12:53:13.638Z,98454.23
2019-02-05T12:55:40.557Z,98454.69
2019-02-05T12:58:07.188Z,98452.76
2019-02-05T13:00:33.929Z,98460.05
2019-02-05T13:03:02.192Z,98466.03
2019-02-05T13:05:28.981Z,98456.67
2019-02-05T13:07:56.387Z,98450.38
2019-02-05T13:10:23.426Z,98444.11
2019-02-05T13:12:50.196Z,98446.86
2019-02-05T13:15:17.869Z,98440.05
2019-02-05T13:17:44.617Z,98428.49
2019-02-05T13:20:11.819Z,98427.52
2019-02-05T13:22:38.595Z,98427.98
2019-02-05T13:25:06.062Z,98438.33
2019-02-05T13:27:33.314Z,98441.50
2019-02-05T13:30:00.055Z,98443.51
2019-02-05T13:32:26.784Z,98440.69
2019-02-05T13:34:53.741Z,98440.38
2019-02-05T13:37:20.602Z,98439.67
2019-02-05T13:39:48.409Z,98444.42
2019-02-05T13:42:15.186Z,98441.21
2019-02-05T13:44:42.222Z,98439.06
2019-02-05T13:47:09.217Z,98435.25
2019-02-05T13:49:36.158Z,98432.81
2019-02-05T13:52:02.821Z,98440.08
2019-02-05T13:54:29.799Z,98434.00
2019-02-05T13:56:56.566Z,98435.14
2019-02-05T13:59:23.382Z,98436.59
2019-02-05T14:01:50.361Z,98442.50
2019-02-05T14:04:18.797Z,98441.05
2019-02-05T14:06:45.606Z,98446.02
2019-02-05T14:09:12.613Z,98437.30
2019-02-05T14:11:39.218Z,98440.08
2019-02-05T14:14:05.909Z,98437.75
2019-02-05T14:16:33.164Z,98438.05
2019-02-05T14:19:00.084Z,98438.53
2019-02-05T14:21:27.200Z,98437.05
2019-02-05T14:23:54.219Z,98437.92
2019-02-05T14:26:21.134Z,98443.53
2019-02-05T14:28:49.613Z,98447.99
2019-02-05T14:31:17.192Z,98443.21
2019-02-05T14:33:43.956Z,98452.42
2019-02-05T14:36:11.671Z,98451.09
2019-02-05T14:38:39.142Z,98451.45
2019-02-05T14:41:07.472Z,98444.02
2019-02-05T14:43:37.910Z,98449.27
2019-02-05T14:46:04.574Z,98454.36
2019-02-05T14:48:32.088Z,98458.33
2019-02-05T14:50:59.617Z,98461.13
2019-02-05T14:53:28.748Z,98458.76
2019-02-05T14:55:59.168Z,98460.72
2019-02-05T14:58:28.414Z,98456.63
2019-02-05T15:00:58.516Z,98463.07
2019-02-05T15:03:25.222Z,98466.52
2019-02-05T15:05:52.519Z,98460.86
2019-02-05T15:08:20.505Z,98461.53
2019-02-05T15:10:47.157Z,98457.42
2019-02-05T15:13:16.123Z,98460.27
2019-02-05T15:15:42.779Z,98463.80
2019-02-05T15:18:10.232Z,98464.22
2019-02-05T15:20:37.094Z,98461.13
2019-02-05T15:23:03.691Z,98461.32
2019-02-05T15:25:30.426Z,98466.20
2019-02-05T15:27:57.139Z,98470.79
2019-02-05T15:30:24.701Z,98469.52
2019-02-05T15:32:51.700Z,98473.95
2019-02-05T15:35:18.631Z,98471.02
2019-02-05T15:37:45.380Z,98470.77
2019-02-05T15:40:12.225Z,98466.64
2019-02-05T15:42:38.963Z,98473.34
2019-02-05T15:45:17.661Z,98472.08
2019-02-05T15:47:44.307Z,98472.54
2019-02-05T15:50:11.307Z,98477.42
2019-02-05T15:52:38.013Z,98476.72
2019-02-05T15:55:04.923Z,98485.02
2019-02-05T15:57:31.608Z,98483.34
2019-02-05T16:00:00.772Z,98484.53
2019-02-05T16:02:27.462Z,98490.36
2019-02-05T16:04:54.403Z,98486.48
2019-02-05T16:07:21.624Z,98487.16
2019-02-05T16:09:48.293Z,98487.27
2019-02-05T16:12:15.323Z,98486.48
2019-02-05T16:14:41.955Z,98496.67
2019-02-05T16:17:08.631Z,98493.80
2019-02-05T16:19:35.642Z,98495.17
2019-02-05T16:22:02.459Z,98496.29
2019-02-05T16:24:29.727Z,98503.62
2019-02-05T16:26:56.414Z,98509.15
2019-02-05T16:29:25.820Z,98501.56
2019-02-05T16:31:52.500Z,98507.13
2019-02-05T16:34:19.309Z,98509.88
2019-02-05T16:36:48.543Z,98505.33
2019-02-05T16:39:14.483Z,98505.23
2019-02-05T16:41:41.414Z,98514.03
2019-02-05T16:44:10.717Z,98517.63
2019-02-05T16:46:39.722Z,98513.70
2019-02-05T16:49:10.550Z,98513.44
2019-02-05T16:51:36.754Z,98516.28
2019-02-05T16:54:05.044Z,98512.05
2019-02-05T16:56:34.322Z,98515.16
2019-02-05T16:59:01.944Z,98517.42
2019-02-05T17:01:30.201Z,98513.19
2019-02-05T17:03:57.752Z,98513.85
2019-02-05T17:06:28.723Z,98516.48
2019-02-05T17:08:59.579Z,98515.09
2019-02-05T17:11:29.103Z,98513.02
2019-02-05T17:13:55.750Z,98514.63
2019-02-05T17:16:22.394Z,98519.19
2019-02-05T17:19:06.809Z,98518.92
2019-02-05T17:21:36.504Z,98512.83
2019-02-05T17:24:04.127Z,98515.83
2019-02-05T17:26:31.947Z,98516.91
2019-02-05T17:29:03.853Z,98522.02
2019-02-05T17:31:36.931Z,98523.00
2019-02-05T17:34:04.414Z,98532.88
2019-02-05T17:36:31.326Z,98529.63
2019-02-05T17:38:58.250Z,98529.17
2019-02-05T17:41:25.433Z,98536.03
2019-02-05T17:43:52.122Z,98540.00
2019-02-05T17:49:05.913Z,98535.98
2019-02-05T17:51:33.555Z,98531.44
2019-02-05T17:54:06.787Z,98530.88
2019-02-05T17:56:33.439Z,98534.47
2019-02-05T17:59:06.639Z,98537.73
2019-02-05T18:01:33.428Z,98537.03
2019-02-05T18:04:03.408Z,98537.03
2019-02-05T18:06:31.363Z,98538.09
2019-02-05T18:08:59.010Z,98540.72
2019-02-05T18:11:29.532Z,98532.72
2019-02-05T18:13:59.515Z,98532.58
2019-02-05T18:16:30.208Z,98538.59
2019-02-05T18:18:57.683Z,98539.36
2019-02-05T18:21:25.709Z,98540.56
2019-02-05T18:24:12.967Z,98538.86
2019-02-05T18:26:40.236Z,98535.89
2019-02-05T18:29:07.943Z,98537.58
2019-02-05T18:31:37.907Z,98534.02
2019-02-05T18:34:05.394Z,98529.69
2019-02-05T18:36:38.517Z,98530.91
2019-02-05T18:39:07.569Z,98532.81
2019-02-05T18:41:34.499Z,98532.26
2019-02-05T18:44:01.801Z,98537.12
2019-02-05T18:46:28.942Z,98542.31
2019-02-05T18:49:04.598Z,98542.91
2019-02-05T18:51:25.592Z,98541.63
2019-02-05T18:53:52.532Z,98548.05
2019-02-05T18:56:19.290Z,98546.03
2019-02-05T18:58:46.080Z,98545.80
2019-02-05T19:01:12.802Z,98543.20
2019-02-05T19:06:11.571Z,98539.43
2019-02-05T19:08:38.456Z,98543.80
2019-02-05T19:11:06.761Z,98553.38
2019-02-05T19:13:33.593Z,98550.53
2019-02-05T19:16:00.530Z,98546.86
2019-02-05T19:18:27.183Z,98537.84
2019-02-05T19:20:53.880Z,98547.80
2019-02-05T19:23:20.879Z,98545.20
2019-02-05T19:25:47.926Z,98557.87
2019-02-05T19:28:14.842Z,98551.84
2019-02-05T19:30:42.965Z,98557.16
2019-02-05T19:33:09.915Z,98554.06
2019-02-05T19:35:36.600Z,98554.30
2019-02-05T19:38:03.667Z,98552.99
2019-02-05T19:40:30.416Z,98548.50
2019-02-05T19:42:57.761Z,98556.80
2019-02-05T19:45:24.779Z,98555.23
2019-02-05T19:47:52.263Z,98550.17
2019-02-05T19:50:18.960Z,98553.45
2019-02-05T19:52:45.737Z,98545.73
2019-02-05T19:55:13.227Z,98546.09
2019-02-05T19:57:40.197Z,98545.71
2019-02-05T20:00:07.205Z,98546.96
2019-02-05T20:02:34.117Z,98547.73
2019-02-05T20:05:01.506Z,98546.95
2019-02-05T20:07:28.475Z,98548.83
2019-02-05T20:09:55.572Z,98551.22
2019-02-05T20:12:23.854Z,98550.53
2019-02-05T20:14:50.494Z,98546.19
2019-02-05T20:17:17.365Z,98546.11
2019-02-05T20:19:44.646Z,98545.68
2019-02-05T20:22:12.289Z,98545.83
2019-02-05T20:24:40.033Z,98540.12
2019-02-05T20:27:06.767Z,98544.52
2019-02-05T20:29:33.755Z,98548.14
2019-02-05T20:32:01.077Z,98550.27
2019-02-05T20:34:29.014Z,98553.00
2019-02-05T20:36:55.747Z,98547.36
2019-02-05T20:39:22.708Z,98549.14
2019-02-05T20:41:52.438Z,98546.68
2019-02-05T20:44:17.901Z,98543.53
2019-02-05T20:46:44.853Z,98543.56
2019-02-05T20:49:11.618Z,98546.52
2019-02-05T20:51:38.301Z,98544.17
2019-02-05T20:54:05.193Z,98547.24
2019-02-05T20:56:31.853Z,98549.59
2019-02-05T20:58:59.118Z,98550.77
2019-02-05T21:01:26.050Z,98541.45
2019-02-05T21:04:00.936Z,98544.70
2019-02-05T21:06:21.115Z,98552.59
2019-02-05T21:08:47.780Z,98554.02
2019-02-05T21:11:15.043Z,98552.50
2019-02-05T21:13:42.007Z,98550.58
2019-02-05T21:16:08.942Z,98551.42
2019-02-05T21:18:35.915Z,98554.41
2019-02-05T21:21:02.828Z,98553.31
2019-02-05T21:23:29.581Z,98552.47
2019-02-05T21:25:56.250Z,98553.89
2019-02-05T21:28:23.265Z,98554.68
2019-02-05T21:30:50.427Z,98553.80
2019-02-05T21:33:19.029Z,98559.44
2019-02-05T21:35:45.945Z,98559.34
2019-02-05T21:38:12.587Z,98555.47
2019-02-05T21:40:39.598Z,98558.66
2019-02-05T21:43:06.537Z,98563.27
2019-02-05T21:45:33.966Z,98558.66
2019-02-05T21:48:00.773Z,98565.03
2019-02-05T21:50:27.481Z,98562.06
2019-02-05T21:52:54.512Z,98560.64
2019-02-05T21:55:21.174Z,98564.19
2019-02-05T21:57:48.223Z,98568.27
2019-02-05T22:00:15.169Z,98560.09
2019-02-05T22:02:42.537Z,98555.98
2019-02-05T22:05:09.746Z,98561.52
2019-02-05T22:07:36.498Z,98562.22
2019-02-05T22:10:03.348Z,98564.66
2019-02-05T22:12:30.797Z,98559.81
2019-02-05T22:14:57.538Z,98554.13
2019-02-05T22:17:24.620Z,98557.98
2019-02-05T22:19:51.493Z,98559.94
2019-02-05T22:22:18.840Z,98562.48
2019-02-05T22:24:45.597Z,98563.05
2019-02-05T22:27:13.036Z,98566.67
2019-02-05T22:29:40.105Z,98559.14
2019-02-05T22:32:06.854Z,98554.25
2019-02-05T22:34:39.465Z,98558.50
2019-02-05T22:37:03.701Z,98558.03
2019-02-05T22:39:31.524Z,98558.50
2019-02-05T22:41:58.333Z,98568.06
2019-02-05T22:44:25.564Z,98561.18
2019-02-05T22:46:52.590Z,98559.87
2019-02-05T22:49:19.637Z,98557.50
2019-02-05T22:51:46.737Z,98559.53
2019-02-05T22:54:13.454Z,98552.27
2019-02-05T22:56:40.170Z,98555.05
2019-02-05T22:59:07.179Z,98551.15
2019-02-05T23:01:33.912Z,98552.92
2019-02-05T23:04:02.138Z,98553.53
2019-02-05T23:06:29.083Z,98553.70
2019-02-05T23:08:56.175Z,98553.47
2019-02-05T23:11:22.931Z,98549.36
2019-02-05T23:13:50.851Z,98543.08
2019-02-05T23:16:17.595Z,98550.61
2019-02-05T23:18:44.214Z,98544.52
2019-02-05T23:21:11.065Z,98547.84
2019-02-05T23:23:38.440Z,98539.27
2019-02-05T23:26:05.218Z,98534.18
2019-02-05T23:28:32.815Z,98542.06
2019-02-05T23:30:59.478Z,98539.35
2019-02-05T23:33:26.510Z,98542.63
2019-02-05T23:35:53.209Z,98536.52
2019-02-05T23:38:19.780Z,98545.47
2019-02-05T23:40:46.633Z,98548.21
2019-02-05T23:43:13.568Z,98550.27
2019-02-05T23:45:40.781Z,98544.32
2019-02-05T23:48:07.897Z,98543.59
2019-02-05T23:50:35.279Z,98546.77
2019-02-05T23:53:03.339Z,98539.67
2019-02-05T23:55:30.577Z,98536.81
2019-02-05T23:57:57.260Z,98534.31
